Results By Gender


Marshman® Triathlon Presented by Kinetic PT

Race Date: Sunday September 18, 2011
Description: 1/4 Mile Swim~12.5 Mile Bike~2 Mile Run
Race Category: Sprint Triathlon
# Entrants in Gender: 161

Choose:
 Gender
Place
Overall
Place
NameCityStateRace AgeGenderDivisionBib#Time
View 1 17 Heppelmann, Patricia Chester Springs PA 39 F F35-39 331 1:01:56
View 2 48 Randall, Leslie Royersford PA 42 F F40-44 343 1:06:20
View 3 51 Noble, Mary Kate Chester Springs PA 34 F F30-34 297 1:06:39
View 4 54 Hall, Michelle Philadelphia PA 28 F F25-29 287 1:07:17
View 5 56 Kolimago, Carol Glenmoore PA 42 F F40-44 342 1:07:24
View 6 62 Miller, Rosemarie Downingtown PA 42 F F40-44 369 1:08:38
View 7 67 Cooney, Gretchen Newtown Square PA 51 F F50-54 409 1:08:53
View 8 70 Winters, Leslie Downingtown PA 50 F F50-54 411 1:09:07
View 9 78 Abens, Kris Kennett Square PA 17 F F0-19 274 1:11:04
View 10 90 Johnson, Cindy West Grove PA 52 F F50-54 418 1:12:08
View 11 92 Stoeckl, Bonnie Pequea PA 55 F F55-59 420 1:12:10
View 12 94 Pottage, Alison Oreland PA 37 F F35-39 318 1:12:11
View 13 104 Boyer, Taylor Glenmoore PA 35 F F35-39 333 1:13:38
View 14 105 Barber, Andrea Phoenixville PA 29 F F25-29 294 1:13:45
View 15 106 Bardman, Cyndi Barto PA 42 F F40-44 146 1:13:54
View 16 116 Sutcliffe, Andi Spring City PA 33 F F30-34 301 1:14:53
View 17 117 Friedman, Virginia Philadelphia PA 41 F F40-44 357 1:14:55
View 18 131 Kalucki, Missey Chester Springs PA 42 F F40-44 341 1:16:11
View 19 135 Steuteville, Sheila Coatesville PA 46 F F45-49 466 1:16:21
View 20 143 Hickerson, Michelle Chapel Hill NC 42 F F40-44 353 1:16:49
View 21 144 Fritsche, Maddi Phoenixville PA 17 F F0-19 272 1:16:57
View 22 147 Fourney, Jill Downingtown PA 28 F F25-29 292 1:17:11
View 23 152 Weaver, Heather Ashburn VA 33 F Athena 428 1:17:56
View 24 155 Umberger, Julie Chester Springs PA 43 F F40-44 372 1:18:08
View 25 159 Rubino, Beth West Chester PA 41 F F40-44 363 1:18:19
View 26 160 Galajda, Laura Thorndale PA 30 F F30-34 304 1:18:23
View 27 161 Kron, Jeanne Brodheadsville PA 41 F Athena 444 1:18:30
View 28 162 Freeman, Charlotte Milford DE 26 F F25-29 296 1:18:30
View 29 163 Lutcher, Rachael West Chester PA 36 F F35-39 332 1:18:30
View 30 166 Leigh, Courtney Queenstown MD 37 F F35-39 334 1:18:48
View 31 171 Bergan, Jane West Chester PA 46 F F45-49 380 1:19:08
View 32 172 Pody, Denise Philadelphia PA 50 F F50-54 416 1:19:13
View 33 173 Lukens, Steph Glenmoore PA 45 F F45-49 390 1:19:15
View 34 175 Ferguson, Marlena Exton PA 42 F F40-44 367 1:19:50
View 35 178 Gray, Tanya West Brandywine PA 45 F F45-49 392 1:20:11
View 36 179 Womer, Sandy Newark DE 37 F F35-39 461 1:20:32
View 37 180 Montgomery, Hillary Eagleville PA 30 F F30-34 312 1:20:36
View 38 183 Denucci, Kristen Newtown Square PA 35 F F35-39 329 1:20:58
View 39 184 Megow, Alexis Malvern PA 35 F F35-39 338 1:21:00
View 40 185 Turulski, Michele Hockessin DE 44 F F40-44 362 1:21:01
View 41 187 Sherwin, Julia Coatesville PA 38 F F35-39 336 1:21:06
View 42 188 Hussey, Margaret Media PA 42 F F40-44 368 1:21:07
View 43 190 Hall, Stephanie Wynnewood PA 30 F F30-34 317 1:21:23
View 44 191 Clarke, Barbara A W West Chester PA 53 F F50-54 397 1:21:26
View 45 195 Mchugh, Pamela Downingtown PA 36 F F35-39 330 1:21:44
View 46 197 Keitch, Maureen Kennett Square PA 32 F F30-34 308 1:21:53
View 47 198 Bright, Janet Chester Springs PA 56 F F55-59 422 1:21:54
View 48 199 Mcgonagle, Maureen Chester Springs PA 41 F F40-44 370 1:21:55
View 49 200 Graziani, Amy West Chester PA 53 F F50-54 407 1:21:59
View 50 201 Mellas, Anne Glenmoore PA 52 F F50-54 402 1:22:00
View 51 202 Heiss, Syd West Chester PA 50 F F50-54 413 1:22:18
View 52 206 Crossman, Renee Glen Mills PA 42 F Athena 472 1:22:27
View 53 209 Larosa, Jessica Downingtown PA 24 F F20-24 277 1:22:43
View 54 210 Barthold, Laura --- F F0-19 275 1:22:49
View 55 211 Evans, Lisa Norristown, PA 51 F F50-54 401 1:22:49
View 56 213 Bradley, Julie N. Potomac MD 51 F F50-54 468 1:22:51
View 57 216 Robinson, Ronni Huntingdon Valley PA 43 F F40-44 366 1:23:00
View 58 217 Longenecker, Orpha Parkesburg PA 40 F F40-44 464 1:23:07
View 59 218 Clements, Nicolle Collegeville PA 25 F F25-29 295 1:23:08
View 60 220 Casey, Michelle Downingtown PA 35 F F35-39 321 1:23:12
View 61 221 Raley, Jennifer Dover DE 41 F F40-44 465 1:23:24
View 62 222 Quigley, Carol West Chester PA 40 F F40-44 375 1:23:32
View 63 224 Buckanavage, Barbara Newark DE 47 F F45-49 395 1:23:42
View 64 226 Bergan, Sarah Chester PA 26 F F25-29 290 1:23:53
View 65 228 Moran, Elizabeth Harveys Lake PA 50 F F50-54 419 1:23:57
View 66 229 Bunch, Melissa Malvern PA 51 F F50-54 400 1:24:00
View 67 230 Buss, Lindsay Macungie PA 23 F F20-24 280 1:24:04
View 68 231 Martin, Lynn Macungie PA 55 F F55-59 423 1:24:06
View 69 238 Wnenchak, Sarah Newark DE 22 F F20-24 279 1:24:26
View 70 242 Haraf, Johanna Wyndmoor PA 42 F F40-44 345 1:25:11
View 71 248 Terry, Julia Glenmoore PA 34 F F30-34 436 1:25:53
View 72 249 Ottinger, Christianne Downingtown PA 38 F F35-39 340 1:25:54
View 73 251 Pante, Mary Beth Media PA 47 F F45-49 388 1:26:03
View 74 252 Johnson-null, Monica Adamstown PA 40 F Athena 438 1:26:06
View 75 257 Crossett, Amelia Elverson PA 50 F F50-54 403 1:26:52
View 76 258 Macgregor, Joanne Berwyn PA 44 F F40-44 376 1:26:53
View 77 260 Newdeck, Michelle Malvern PA 32 F F30-34 305 1:27:13
View 78 261 Keene, Lynn Adamstown PA 32 F Athena 439 1:28:20
View 79 262 Heckard, Kassy Philadelphia PA 32 F F30-34 309 1:28:21
View 80 264 Pacheco, Rhonda Alexandria VA 32 F F30-34 303 1:28:29
View 81 265 Willer, Johanna Alexandria VA 30 F F30-34 302 1:28:32
View 82 267 Van Wormer, Sandra Wilmington DE 53 F F50-54 415 1:28:40
View 83 269 Hires, Tania West Chester PA 36 F F35-39 337 1:28:44
View 84 273 Laverty, Michele Conshohocken PA 45 F F45-49 387 1:28:50
View 85 274 Ambrosino, Pamela Cherry Hill NJ 45 F F45-49 382 1:29:02
View 86 277 D'isabella, Linda Oxford PA 43 F Athena 442 1:29:55
View 87 279 Lindeman, Becky Merion PA 40 F F40-44 359 1:30:14
View 88 280 Fisher, Jennifer Royersford PA 41 F F40-44 377 1:30:21
View 89 281 Mariotti, Deane Berwyn PA 33 F F30-34 311 1:30:22
View 90 282 Arnold, Juli Reading PA 34 F F30-34 300 1:30:34
View 91 285 Wilkinson, Tara Kennett Square PA 32 F F30-34 314 1:30:40
View 92 286 Burke, Betty West Chester PA 60 F F60-64 424 1:30:48
View 93 291 Kirk, Colleen Chester Springs PA 47 F F45-49 389 1:31:14
View 94 293 Petrucci, Kimberly Wynnewood PA 41 F F40-44 374 1:31:17
View 95 295 Trego, Michelle New Holland PA 41 F F40-44 355 1:31:43
View 96 299 Glendinning, Ellen Lafayette Hill PA 50 F F50-54 405 1:32:15
View 97 300 Treston, Allison West Chester PA 30 F F30-34 316 1:32:19
View 98 301 Donnelly, Kate West Chester PA 35 F F35-39 339 1:32:19
View 99 304 Murphy, Lisa Downingtown PA 30 F F30-34 313 1:32:25
View 100 305 Felten, Elizabeth Haddonfield NJ 28 F F25-29 281 1:32:27
View 101 307 Faust, Nicole Barto PA 44 F Athena 432 1:32:38
View 102 309 Dempsey, Barbara Newark DE 40 F F40-44 348 1:33:23
View 103 310 Lipton, Jill Downingtown PA 40 F F40-44 347 1:33:24
View 104 313 Howe, Rebecca Philadelphia PA 28 F F25-29 291 1:33:40
View 105 314 Morrissey, Sarah Sinking Spring PA 26 F F25-29 289 1:33:58
View 106 316 Hellgoth, Marie Downingtown PA 42 F F40-44 358 1:34:26
View 107 321 Dadamio, Lisa Reading PA 42 F F40-44 346 1:34:52
View 108 323 Polizzi, Angie Devon PA 42 F F40-44 350 1:34:57
View 109 324 Powers, Tracey Phoenix AZ 42 F F40-44 352 1:34:57
View 110 326 Menna, Laurie Downingtown PA 36 F F35-39 324 1:35:05
View 111 328 Simms, Rachel Wallingford PA 25 F F25-29 293 1:35:32
View 112 331 Mccurley, Sara Wayne PA 37 F F35-39 462 1:35:49
View 113 332 Henwood, Kristen Ardmore PA 26 F F25-29 288 1:35:56
View 114 335 Anderson, Cindy Denver PA 52 F F50-54 412 1:36:21
View 115 336 Burger, Stacy Bethlehem PA 41 F F40-44 351 1:36:29
View 116 337 Taylor, Sarah Philadelphia PA 33 F Athena 426 1:36:41
View 117 339 Merrill, Bailey --- F F0-19 5 1:36:45
View 118 341 Hartman, Molly Brooklyn NY 25 F F25-29 286 1:37:00
View 119 343 Schreiber, Blythe Audubon NJ 26 F Athena 443 1:37:27
View 120 344 Royston, Katelynn Runnemede NJ 28 F Athena 440 1:37:39
View 121 345 Duncan, Alison Philadelphia PA 29 F F25-29 460 1:38:04
View 122 348 Murphy, Juliane West Chester PA 40 F F40-44 373 1:39:16
View 123 349 Raymond, Denise Downingtown PA 46 F F45-49 385 1:39:50
View 124 350 Christ, Colleen Pottstown PA 42 F F40-44 463 1:39:51
View 125 351 Macluckie, Michelle Gilbertsville PA 42 F F40-44 371 1:39:56
View 126 352 Thompson, Natalia Kennett Square PA 32 F Athena 470 1:40:25
View 127 353 Lefevre, Donna Collegeville PA 48 F F45-49 386 1:41:12
View 128 355 Litvin, Sandra West Chester PA 51 F F50-54 408 1:42:04
View 129 357 Salasin, Roseann Landenberg PA 52 F F50-54 417 1:42:14
View 130 358 Flaherty, Anne Downingtown PA 46 F F45-49 381 1:42:21
View 131 362 Attanasio, Lea Honey Brook PA 54 F F50-54 467 1:43:02
View 132 363 Slaymaker, Stacy Lancaster PA 45 F F45-49 383 1:43:07
View 133 365 Cover-miller, Denise Downingtown PA 42 F F40-44 344 1:43:17
View 134 366 Rucker, Mary Beth Bethlehem PA 54 F F50-54 406 1:44:09
View 135 367 Myers, Ann Douglassville PA 52 F F50-54 414 1:44:33
View 136 370 Hammond, Sherri Brodheadsville PA 49 F Athena 437 1:45:33
View 137 371 Klassen, Arli Lancaster PA 52 F Athena 434 1:46:08
View 138 373 Shewmake, Kelly Denver PA 34 F Athena 427 1:46:23
View 139 374 Kelly-stalford, Joan Chadds Ford PA 50 F F50-54 410 1:46:30
View 140 375 Brown, Lisa Brookhaven PA 33 F F30-34 315 1:46:42
View 141 376 Lee, Laura West Chester PA 40 F F40-44 354 1:46:51
View 142 377 Spencer, Suzanne Kintnersville PA 54 F F50-54 398 1:46:53
View 143 378 Breeding, Molly Harrington DE 50 F Athena 473 1:47:17
View 144 379 Stackhouse, Diane Bryn Mawr PA 28 F F25-29 285 1:47:26
View 145 380 Brown-joseph, Belinda Chalfont PA 40 F F40-44 360 1:47:54
View 146 381 Singh, Shiret Wilmington DE 47 F F45-49 393 1:48:18
View 147 382 Johnson, Ally West Grove PA 16 F F0-19 276 1:48:49
View 148 383 Booz, Jane Pennsville NJ 49 F F45-49 394 1:49:37
View 149 384 Straube, Karen Springfield PA 47 F F45-49 396 1:49:39
View 150 387 Krayss, Randy Havertown PA 61 F F60-64 469 1:50:12
View 151 388 Donofrio, Heather Wallingford PA 34 F F30-34 310 1:50:18
View 152 392 Bartley, Suzanne Chalfont PA 44 F F40-44 15 1:55:31
View 153 393 Colella, Deborah Pottstown PA 41 F F40-44 349 1:56:08
View 154 394 Hill, Cyndi Coatesville PA 39 F F35-39 326 1:56:30
View 155 396 Loose, Cecilia Glenmoore PA 45 F F45-49 391 1:58:42
View 156 397 Webber, Tammy Bel Air MD 36 F Athena 431 2:00:36
View 157 399 Long, Tricia Allentown PA 36 F F35-39 325 2:05:42
View 158 400 Hess, Christine Havertown PA 39 F F35-39 328 2:07:13
View 159 401 Terrell, Diana Wilmington DE 66 F F65-69 425 2:09:07
View 160 402 Ledford, Barbara Ardmore PA 22 F Athena 433 2:09:57
View 161 403 Buxton, Claudia Dover DE 39 F Athena 471 2:20:01